Time;durP1;ratioP1;P1;durP2;ratioP2;P2;SDS_P1;SDS_P2;PMS_P1;PMS_P2;Temp;Humidity;BMP_temperature;BMP_pressure;BME280_temperature;BME280_humidity;BME280_pressure;Samples;Min_cycle;Max_cycle;Signal;HPM_P1;HPM_P2
2022/01/29 00:00:34;;;;;;;74.70;42.73;;;3.60;71.30;;;;;;4975354;28;20026;-73
2022/01/29 00:03:00;;;;;;;75.53;42.73;;;3.60;71.40;;;;;;4975749;28;20102;-72
2022/01/29 00:05:26;;;;;;;71.23;38.20;;;3.50;71.40;;;;;;4975356;28;20034;-73
2022/01/29 00:07:51;;;;;;;63.93;36.23;;;3.60;71.40;;;;;;4974625;28;20023;-73
2022/01/29 00:10:17;;;;;;;63.70;35.77;;;3.60;71.40;;;;;;4974039;28;20070;-72
2022/01/29 00:12:43;;;;;;;64.27;34.63;;;3.50;70.80;;;;;;4974660;28;20455;-74
2022/01/29 00:15:09;;;;;;;67.53;35.50;;;3.50;70.50;;;;;;4975378;28;20077;-74
2022/01/29 00:17:35;;;;;;;62.33;34.57;;;3.40;70.30;;;;;;4973308;28;20373;-72
2022/01/29 00:20:01;;;;;;;60.63;34.80;;;3.40;70.10;;;;;;4975331;28;20460;-72
2022/01/29 00:22:27;;;;;;;67.23;37.63;;;3.40;70.10;;;;;;4975405;28;20411;-72
2022/01/29 00:24:53;;;;;;;73.00;38.73;;;3.40;70.00;;;;;;4974099;28;20053;-72
2022/01/29 00:27:20;;;;;;;66.03;39.57;;;3.40;70.10;;;;;;4975297;28;20484;-72
2022/01/29 00:29:46;;;;;;;72.53;40.27;;;3.30;70.10;;;;;;4974410;28;20061;-72
2022/01/29 00:32:13;;;;;;;68.63;35.90;;;3.30;70.20;;;;;;4974653;28;20476;-72
2022/01/29 00:34:39;;;;;;;64.40;36.70;;;3.30;70.10;;;;;;4974346;28;20518;-72
2022/01/29 00:37:06;;;;;;;60.97;35.57;;;3.30;69.90;;;;;;4973294;28;20045;-73
2022/01/29 00:39:32;;;;;;;59.33;33.53;;;3.30;70.10;;;;;;4973978;28;20121;-72
2022/01/29 00:41:58;;;;;;;56.27;29.17;;;3.20;69.60;;;;;;4974163;28;20105;-72
2022/01/29 00:44:24;;;;;;;53.10;29.07;;;3.20;69.50;;;;;;4973888;28;20019;-73
2022/01/29 00:46:49;;;;;;;50.67;27.43;;;3.10;68.80;;;;;;4973987;28;20035;-73
2022/01/29 00:49:15;;;;;;;44.40;23.83;;;3.10;68.80;;;;;;4974693;28;20535;-72
2022/01/29 00:51:41;;;;;;;46.50;27.07;;;3.10;68.60;;;;;;4973994;28;20057;-73
2022/01/29 00:54:07;;;;;;;51.47;29.27;;;3.10;68.90;;;;;;4973928;28;20373;-73
2022/01/29 00:56:32;;;;;;;46.27;25.90;;;3.00;68.20;;;;;;4974403;28;20105;-74
2022/01/29 00:58:58;;;;;;;46.80;24.47;;;3.10;68.60;;;;;;4973531;28;20027;-73
2022/01/29 01:01:24;;;;;;;33.97;18.33;;;3.00;68.30;;;;;;4974566;28;20030;-74
2022/01/29 01:03:50;;;;;;;26.33;14.80;;;3.00;68.20;;;;;;4973595;28;20413;-73
2022/01/29 01:06:16;;;;;;;17.77;9.97;;;3.00;67.10;;;;;;4973924;28;20023;-74
2022/01/29 01:08:42;;;;;;;10.57;6.17;;;3.00;65.80;;;;;;4973380;28;20495;-73
2022/01/29 01:11:08;;;;;;;9.93;5.70;;;3.00;64.70;;;;;;4972141;28;20034;-73
2022/01/29 01:13:34;;;;;;;11.77;7.63;;;3.10;63.30;;;;;;4972829;28;20031;-73
2022/01/29 01:16:00;;;;;;;34.40;19.47;;;3.10;62.60;;;;;;4973635;28;20394;-73
2022/01/29 01:18:27;;;;;;;35.07;19.03;;;3.10;62.90;;;;;;4973238;28;20046;-73
2022/01/29 01:20:53;;;;;;;30.97;18.10;;;3.10;63.50;;;;;;4973553;28;20149;-73
2022/01/29 01:23:19;;;;;;;29.37;16.57;;;3.10;64.00;;;;;;4973406;28;20023;-73
2022/01/29 01:25:45;;;;;;;21.07;12.30;;;3.20;64.30;;;;;;4974291;28;20023;-73
2022/01/29 01:28:11;;;;;;;13.83;7.00;;;3.20;64.30;;;;;;4973378;28;20077;-74
2022/01/29 01:30:36;;;;;;;8.63;4.23;;;3.20;62.70;;;;;;4973676;28;20035;-73
2022/01/29 01:33:03;;;;;;;6.50;3.50;;;3.20;61.40;;;;;;4974055;28;20093;-75
2022/01/29 01:35:36;;;;;;;5.33;2.70;;;3.20;61.00;;;;;;4973930;28;20103;-73
2022/01/29 01:41:05;;;;;;;7.10;2.50;;;3.30;59.50;;;;;;4939931;28;20505;-73
2022/01/29 01:43:31;;;;;;;11.23;6.27;;;3.30;59.40;;;;;;4972984;28;20434;-73
2022/01/29 01:45:56;;;;;;;12.80;7.63;;;3.30;58.20;;;;;;4973043;28;20023;-74
2022/01/29 01:48:22;;;;;;;11.37;5.47;;;3.30;59.10;;;;;;4973665;28;20494;-73
2022/01/29 01:50:50;;;;;;;12.90;6.23;;;3.20;58.90;;;;;;4972349;28;20085;-73
2022/01/29 01:53:15;;;;;;;18.17;6.90;;;3.10;58.90;;;;;;4972662;28;20022;-74
2022/01/29 01:55:41;;;;;;;12.83;7.07;;;3.10;59.50;;;;;;4971529;28;20085;-73
2022/01/29 01:58:07;;;;;;;15.30;8.63;;;3.10;59.90;;;;;;4971421;28;20106;-74
2022/01/29 02:00:33;;;;;;;18.70;9.57;;;3.10;60.70;;;;;;4970263;28;20031;-74
2022/01/29 02:02:59;;;;;;;20.17;11.00;;;3.10;60.30;;;;;;4970387;28;20033;-73
2022/01/29 02:05:25;;;;;;;20.67;11.27;;;3.00;60.50;;;;;;4972445;28;20031;-73
2022/01/29 02:07:51;;;;;;;21.10;11.33;;;3.00;61.10;;;;;;4972649;28;20491;-73
2022/01/29 02:10:18;;;;;;;20.00;11.60;;;3.00;61.50;;;;;;4972257;28;20086;-74
2022/01/29 02:12:48;;;;;;;22.60;13.03;;;3.00;61.30;;;;;;4972297;28;20492;-73
2022/01/29 02:15:15;;;;;;;21.00;12.33;;;3.00;61.40;;;;;;4972511;28;20085;-73
2022/01/29 02:17:41;;;;;;;24.37;13.30;;;3.00;61.20;;;;;;4973278;28;20046;-73
2022/01/29 02:20:07;;;;;;;23.53;12.37;;;3.00;60.70;;;;;;4972892;28;20019;-73
2022/01/29 02:22:33;;;;;;;22.93;12.23;;;2.90;60.50;;;;;;4970770;28;20030;-73
2022/01/29 02:24:58;;;;;;;21.97;13.17;;;2.80;60.50;;;;;;4973427;28;20162;-73
2022/01/29 02:27:24;;;;;;;21.30;12.70;;;2.80;61.20;;;;;;4973183;28;20074;-74
2022/01/29 02:29:50;;;;;;;22.87;12.47;;;2.80;61.00;;;;;;4972163;28;20423;-73
2022/01/29 02:32:16;;;;;;;24.93;12.33;;;2.70;61.50;;;;;;4972997;28;20683;-73
2022/01/29 02:34:44;;;;;;;25.37;12.43;;;2.70;62.50;;;;;;4973086;28;20066;-73
2022/01/29 02:37:09;;;;;;;25.07;13.17;;;2.70;62.00;;;;;;4972409;28;20030;-73
2022/01/29 02:39:35;;;;;;;24.47;14.10;;;2.70;61.80;;;;;;4972082;28;20208;-73
2022/01/29 02:42:02;;;;;;;25.20;13.43;;;2.80;61.90;;;;;;4972037;28;20031;-73
2022/01/29 02:44:28;;;;;;;25.07;14.17;;;2.70;62.20;;;;;;4971555;28;20105;-72
2022/01/29 02:46:56;;;;;;;25.07;14.13;;;2.80;62.60;;;;;;4972538;28;20115;-73
2022/01/29 02:49:24;;;;;;;25.47;13.90;;;2.70;62.70;;;;;;4972900;28;20113;-74
2022/01/29 02:51:52;;;;;;;21.67;12.57;;;2.80;62.90;;;;;;4972050;28;20023;-73
2022/01/29 02:54:18;;;;;;;24.73;14.00;;;2.70;63.00;;;;;;4972013;28;20039;-73
2022/01/29 02:56:45;;;;;;;24.00;12.90;;;2.70;63.10;;;;;;4970704;28;20098;-73
2022/01/29 02:59:11;;;;;;;20.17;12.07;;;2.80;63.30;;;;;;4973013;28;20030;-72
2022/01/29 03:01:38;;;;;;;20.13;12.63;;;2.70;63.10;;;;;;4974319;28;20042;-73
2022/01/29 03:04:04;;;;;;;24.93;13.57;;;2.70;63.30;;;;;;4976724;28;20069;-73
2022/01/29 03:06:30;;;;;;;26.20;13.73;;;2.70;63.40;;;;;;4975705;28;20042;-73
2022/01/29 03:08:56;;;;;;;23.90;13.43;;;2.70;63.60;;;;;;4976141;28;20154;-73
2022/01/29 03:11:22;;;;;;;21.90;13.43;;;2.60;63.60;;;;;;4975239;28;20482;-73
2022/01/29 03:13:49;;;;;;;23.47;13.03;;;2.60;63.40;;;;;;4975521;28;20132;-73
2022/01/29 03:16:15;;;;;;;22.37;12.70;;;2.60;63.30;;;;;;4975708;28;20035;-73
2022/01/29 03:18:41;;;;;;;24.63;13.70;;;2.60;63.40;;;;;;4976462;28;20117;-73
2022/01/29 03:21:07;;;;;;;22.63;12.57;;;2.50;63.40;;;;;;4975643;28;20066;-72
2022/01/29 03:23:33;;;;;;;23.33;13.17;;;2.60;64.10;;;;;;4975993;28;20105;-73
2022/01/29 03:25:58;;;;;;;24.90;12.97;;;2.50;64.10;;;;;;4976178;28;20027;-73
2022/01/29 03:28:24;;;;;;;21.93;12.43;;;2.60;64.10;;;;;;4975823;28;20045;-73
2022/01/29 03:30:50;;;;;;;23.93;12.87;;;2.50;63.10;;;;;;4975834;28;20388;-74
2022/01/29 03:33:15;;;;;;;19.70;12.20;;;2.60;63.20;;;;;;4975198;28;20034;-73
2022/01/29 03:35:41;;;;;;;27.77;12.50;;;2.60;63.30;;;;;;4974591;28;20132;-72
2022/01/29 03:38:07;;;;;;;23.17;12.13;;;2.60;63.20;;;;;;4975703;28;20023;-72
2022/01/29 03:40:33;;;;;;;21.97;11.67;;;2.60;63.30;;;;;;4975061;28;20436;-72
2022/01/29 03:45:25;;;;;;;25.27;12.73;;;2.50;63.80;;;;;;4974614;28;20041;-72
2022/01/29 03:47:51;;;;;;;19.37;11.03;;;2.50;64.10;;;;;;4974504;28;20491;-72
2022/01/29 03:50:16;;;;;;;22.60;11.97;;;2.50;64.40;;;;;;4974694;28;20443;-73
2022/01/29 03:52:42;;;;;;;20.07;11.63;;;2.50;64.40;;;;;;4975610;28;20098;-72
2022/01/29 03:55:08;;;;;;;21.83;11.70;;;2.50;64.20;;;;;;4974825;28;20090;-72
2022/01/29 03:57:33;;;;;;;23.20;11.23;;;2.50;64.10;;;;;;4974595;28;20082;-72
2022/01/29 04:00:01;;;;;;;19.27;10.60;;;2.40;63.80;;;;;;4975067;28;20058;-73
2022/01/29 04:02:27;;;;;;;20.83;10.83;;;2.40;63.70;;;;;;4975179;28;20019;-72
2022/01/29 04:04:52;;;;;;;20.33;10.57;;;2.40;63.40;;;;;;4975438;28;20085;-72
2022/01/29 04:07:18;;;;;;;20.83;10.90;;;2.40;63.20;;;;;;4975066;28;20031;-72
2022/01/29 04:09:48;;;;;;;22.83;11.67;;;2.40;63.20;;;;;;4974131;28;20089;-73
2022/01/29 04:12:15;;;;;;;24.87;11.83;;;2.30;63.30;;;;;;4973846;28;20114;-73
2022/01/29 04:14:41;;;;;;;24.43;12.53;;;2.30;63.40;;;;;;4973964;28;20037;-73
2022/01/29 04:17:07;;;;;;;21.23;11.63;;;2.30;63.70;;;;;;4974901;28;20027;-73
2022/01/29 04:19:34;;;;;;;21.70;10.47;;;2.20;63.70;;;;;;4975182;28;20031;-73
2022/01/29 04:22:00;;;;;;;28.00;12.10;;;2.20;63.90;;;;;;4974341;28;20113;-73
2022/01/29 04:24:27;;;;;;;20.90;11.17;;;2.20;64.00;;;;;;4974613;28;20435;-73
2022/01/29 04:26:53;;;;;;;22.60;11.40;;;2.20;63.50;;;;;;4974334;28;20031;-73
2022/01/29 04:29:20;;;;;;;27.73;14.70;;;2.20;63.50;;;;;;4974765;28;20368;-73
2022/01/29 04:31:59;;;;;;;27.07;15.17;;;2.20;63.60;;;;;;4975345;28;20023;-73
2022/01/29 04:34:26;;;;;;;31.60;16.10;;;2.10;63.70;;;;;;4975140;28;20365;-74
2022/01/29 04:36:52;;;;;;;26.57;14.37;;;2.10;63.90;;;;;;4974575;28;20030;-73
2022/01/29 04:39:18;;;;;;;29.90;16.37;;;;;;;;;;4974638;28;20464;-72
2022/01/29 04:41:44;;;;;;;31.13;14.23;;;2.00;63.90;;;;;;4974649;28;20543;-73
2022/01/29 04:44:09;;;;;;;30.77;16.67;;;2.00;64.60;;;;;;4974778;28;20039;-73
2022/01/29 04:46:35;;;;;;;28.40;15.60;;;1.90;64.50;;;;;;4974938;28;20403;-73
2022/01/29 04:49:01;;;;;;;29.57;15.23;;;1.90;64.80;;;;;;4974489;28;20042;-74
2022/01/29 04:51:26;;;;;;;24.80;13.60;;;1.90;64.90;;;;;;4973644;28;20448;-73
2022/01/29 04:53:52;;;;;;;25.67;14.07;;;1.90;64.70;;;;;;4974492;28;20027;-73
2022/01/29 04:56:18;;;;;;;26.97;14.43;;;1.90;64.60;;;;;;4973732;28;20027;-73
2022/01/29 04:58:43;;;;;;;22.90;12.77;;;1.90;64.90;;;;;;4973713;28;20106;-73
2022/01/29 05:01:09;;;;;;;26.07;13.20;;;1.90;64.90;;;;;;4973987;28;20065;-73
2022/01/29 05:03:35;;;;;;;23.10;11.10;;;1.90;65.00;;;;;;4972762;28;20038;-73
2022/01/29 05:06:01;;;;;;;15.37;7.93;;;2.00;65.00;;;;;;4973986;28;20031;-73
2022/01/29 05:08:27;;;;;;;15.43;7.97;;;2.00;64.70;;;;;;4974036;28;20039;-73
2022/01/29 05:10:54;;;;;;;10.33;6.10;;;2.00;64.20;;;;;;4974655;28;20395;-73
2022/01/29 05:13:25;;;;;;;14.90;7.57;;;2.00;64.10;;;;;;4974531;28;20487;-73
2022/01/29 05:26:52;;;;;;;13.23;7.00;;;2.00;63.30;;;;;;4973278;28;20042;-73
2022/01/29 05:29:18;;;;;;;7.23;4.33;;;2.00;63.40;;;;;;4971978;28;20084;-73
2022/01/29 05:31:44;;;;;;;8.87;5.07;;;2.00;63.20;;;;;;4973836;28;20030;-73
2022/01/29 05:34:11;;;;;;;17.23;8.13;;;2.00;62.40;;;;;;4973102;28;20049;-73
2022/01/29 05:36:36;;;;;;;18.53;8.77;;;2.10;62.00;;;;;;4972530;28;20035;-73
2022/01/29 05:39:04;;;;;;;18.07;8.53;;;2.10;62.40;;;;;;4974409;28;20431;-72
2022/01/29 05:41:30;;;;;;;16.57;8.50;;;2.00;62.60;;;;;;4973625;28;20180;-73
2022/01/29 05:43:56;;;;;;;17.37;9.37;;;2.00;62.90;;;;;;4972876;28;20031;-73
2022/01/29 05:46:22;;;;;;;17.03;8.40;;;1.90;63.00;;;;;;4972222;28;20025;-73
2022/01/29 05:48:48;;;;;;;18.87;8.43;;;1.90;63.20;;;;;;4973031;28;20114;-73
2022/01/29 05:51:14;;;;;;;21.40;11.00;;;1.90;63.30;;;;;;4973442;28;20380;-73
2022/01/29 05:53:40;;;;;;;23.87;11.23;;;1.80;63.50;;;;;;4973594;28;20501;-73
2022/01/29 05:56:06;;;;;;;28.37;13.83;;;1.80;63.90;;;;;;4973003;28;20062;-72
2022/01/29 05:58:32;;;;;;;35.37;14.80;;;1.70;64.30;;;;;;4972851;28;20031;-73
2022/01/29 06:00:58;;;;;;;37.87;17.10;;;1.70;64.50;;;;;;4973747;28;20489;-72
2022/01/29 06:03:24;;;;;;;37.13;15.87;;;1.70;64.40;;;;;;4973736;28;20026;-72
2022/01/29 06:05:49;;;;;;;41.37;18.20;;;1.70;64.50;;;;;;4972620;28;20042;-73
2022/01/29 06:08:15;;;;;;;42.47;17.40;;;1.70;64.60;;;;;;4973605;28;20022;-73
2022/01/29 06:10:41;;;;;;;45.50;16.50;;;1.60;64.70;;;;;;4972886;28;20042;-73
2022/01/29 06:13:12;;;;;;;40.43;15.43;;;1.60;64.80;;;;;;4972428;28;20494;-73
2022/01/29 06:15:41;;;;;;;38.40;14.73;;;1.60;65.00;;;;;;4972794;28;20034;-73
2022/01/29 06:18:13;;;;;;;28.97;13.00;;;1.60;65.20;;;;;;4973398;28;20360;-73
2022/01/29 06:20:40;;;;;;;30.13;12.07;;;1.60;65.30;;;;;;4972907;28;20154;-72
2022/01/29 06:23:06;;;;;;;33.53;14.00;;;1.60;65.20;;;;;;4973100;28;20395;-72
2022/01/29 06:25:32;;;;;;;35.97;15.27;;;1.60;65.00;;;;;;4973298;28;20142;-72
2022/01/29 06:27:58;;;;;;;49.40;16.90;;;1.60;65.00;;;;;;4972659;28;20118;-72
2022/01/29 06:30:23;;;;;;;33.40;15.17;;;1.60;65.00;;;;;;4972877;28;20043;-72
2022/01/29 06:32:49;;;;;;;45.63;17.37;;;1.60;65.00;;;;;;4973270;28;20077;-72
2022/01/29 06:35:15;;;;;;;39.00;15.50;;;1.60;64.90;;;;;;4972527;28;20031;-75
2022/01/29 06:37:41;;;;;;;38.23;15.00;;;1.60;64.90;;;;;;4976815;28;20030;-72
2022/01/29 06:40:08;;;;;;;35.87;14.17;;;1.60;65.10;;;;;;4976516;28;20037;-72
2022/01/29 06:42:34;;;;;;;29.27;12.87;;;1.60;65.00;;;;;;4976417;28;20026;-72
2022/01/29 06:45:00;;;;;;;25.87;12.07;;;1.60;65.10;;;;;;4976342;28;20031;-72
2022/01/29 06:47:25;;;;;;;23.90;10.87;;;1.60;65.10;;;;;;4976465;28;20090;-72
2022/01/29 06:49:51;;;;;;;26.10;11.40;;;1.60;65.00;;;;;;4975801;28;20109;-72
2022/01/29 06:52:17;;;;;;;23.67;11.93;;;1.60;64.90;;;;;;4975763;28;20030;-72
2022/01/29 06:54:42;;;;;;;23.43;10.87;;;1.60;65.10;;;;;;4976058;28;20484;-72
2022/01/29 06:57:08;;;;;;;18.90;9.50;;;1.60;65.30;;;;;;4976136;28;20065;-72
2022/01/29 06:59:34;;;;;;;18.20;8.97;;;1.60;65.40;;;;;;4975888;28;20037;-73
2022/01/29 07:01:59;;;;;;;17.30;7.97;;;1.60;65.50;;;;;;4975923;28;20030;-72
2022/01/29 07:04:25;;;;;;;18.00;8.80;;;1.60;65.50;;;;;;4976659;28;20022;-72
2022/01/29 07:06:51;;;;;;;18.53;9.10;;;1.50;65.50;;;;;;4976299;28;20050;-73
2022/01/29 07:09:16;;;;;;;17.43;8.03;;;1.60;65.30;;;;;;4975475;28;20047;-72
2022/01/29 07:11:44;;;;;;;18.60;9.07;;;1.60;65.20;;;;;;4975499;28;20038;-72
2022/01/29 07:14:16;;;;;;;17.80;8.47;;;1.60;65.30;;;;;;4975388;28;20022;-72
2022/01/29 07:16:43;;;;;;;20.10;10.38;;;1.60;65.40;;;;;;4975183;28;20053;-74
2022/01/29 07:19:09;;;;;;;20.77;10.33;;;1.60;65.70;;;;;;4976970;28;20061;-74
2022/01/29 07:21:35;;;;;;;30.93;11.97;;;1.70;65.70;;;;;;4977019;28;20026;-73
2022/01/29 07:24:00;;;;;;;26.30;11.27;;;1.70;65.90;;;;;;4976901;28;20037;-73
2022/01/29 07:26:26;;;;;;;30.70;12.87;;;1.70;65.70;;;;;;4976697;28;20019;-74
2022/01/29 07:28:52;;;;;;;27.47;12.40;;;1.80;66.50;;;;;;4976526;28;20026;-74
2022/01/29 07:31:17;;;;;;;30.53;13.10;;;1.80;65.70;;;;;;4974454;28;20037;-75
2022/01/29 07:33:43;;;;;;;24.10;12.30;;;1.80;65.60;;;;;;4973949;28;20022;-80
2022/01/29 07:36:09;;;;;;;29.13;12.50;;;1.80;65.60;;;;;;4973822;28;20035;-76
2022/01/29 07:38:34;;;;;;;26.47;12.43;;;1.80;65.70;;;;;;4974448;28;20420;-77
2022/01/29 07:41:00;;;;;;;21.40;11.20;;;1.80;65.90;;;;;;4976168;28;20023;-74
2022/01/29 07:43:26;;;;;;;26.97;11.00;;;1.80;66.10;;;;;;4976019;28;20038;-75
2022/01/29 07:45:51;;;;;;;27.87;10.77;;;1.80;66.20;;;;;;4973896;28;20120;-77
2022/01/29 07:48:17;;;;;;;24.60;10.27;;;1.90;66.40;;;;;;4975994;28;20023;-74
2022/01/29 07:50:43;;;;;;;282.83;29.03;;;1.90;66.50;;;;;;4976164;28;20049;-77
2022/01/29 07:53:09;;;;;;;124.30;14.10;;;2.00;66.50;;;;;;4976275;28;20027;-75
2022/01/29 07:55:34;;;;;;;18.63;8.10;;;2.00;66.20;;;;;;4956368;28;20073;-76
2022/01/29 07:58:07;;;;;;;16.33;7.70;;;2.10;66.00;;;;;;4972978;28;20031;-76
2022/01/29 08:00:34;;;;;;;11.23;6.00;;;2.10;65.80;;;;;;4975662;28;20391;-75
2022/01/29 08:03:00;;;;;;;10.30;4.60;;;2.10;65.40;;;;;;4976197;28;20027;-75
2022/01/29 08:05:26;;;;;;;12.20;6.67;;;2.20;64.90;;;;;;4975958;28;20037;-76
2022/01/29 08:07:52;;;;;;;15.53;7.00;;;2.20;64.60;;;;;;4975705;28;20498;-76
2022/01/29 08:10:17;;;;;;;17.30;7.10;;;2.30;64.80;;;;;;4975175;28;20047;-76
2022/01/29 08:12:43;;;;;;;13.13;6.70;;;2.30;64.90;;;;;;4975410;28;20027;-75
2022/01/29 08:15:09;;;;;;;43.03;9.77;;;2.30;64.40;;;;;;4975678;28;20117;-75
2022/01/29 08:17:35;;;;;;;18.77;8.50;;;2.40;64.30;;;;;;4975373;28;20023;-75
2022/01/29 08:20:00;;;;;;;18.47;8.23;;;2.40;64.20;;;;;;4975691;28;20166;-74
2022/01/29 08:22:26;;;;;;;15.03;7.90;;;2.40;64.20;;;;;;4975444;28;20081;-74
2022/01/29 08:24:52;;;;;;;14.07;7.03;;;2.50;64.60;;;;;;4975534;28;20023;-74
2022/01/29 08:27:21;;;;;;;12.00;6.53;;;2.60;64.60;;;;;;4974999;28;20480;-74
2022/01/29 08:29:47;;;;;;;13.30;6.17;;;2.70;64.40;;;;;;4975519;28;20094;-78
2022/01/29 08:32:13;;;;;;;13.77;5.80;;;2.70;64.30;;;;;;4975559;28;20507;-75
2022/01/29 08:34:40;;;;;;;14.40;5.30;;;2.80;64.20;;;;;;4975403;28;20023;-74
2022/01/29 08:37:06;;;;;;;41.70;9.30;;;2.90;64.30;;;;;;4975064;28;20055;-75
2022/01/29 08:39:32;;;;;;;33.97;16.53;;;3.00;64.40;;;;;;4975414;28;20164;-76
2022/01/29 08:41:58;;;;;;;45.40;21.17;;;3.10;64.60;;;;;;4975033;28;20411;-76
2022/01/29 08:44:24;;;;;;;44.07;24.13;;;3.30;64.50;;;;;;4974034;28;20037;-73
2022/01/29 08:46:50;;;;;;;52.70;25.00;;;3.40;65.20;;;;;;4973411;28;20340;-74
2022/01/29 08:49:16;;;;;;;52.40;27.70;;;3.50;64.70;;;;;;4973206;28;20033;-73
2022/01/29 08:51:41;;;;;;;42.33;24.83;;;3.60;64.70;;;;;;4974501;28;20027;-74
2022/01/29 08:54:07;;;;;;;45.57;16.23;;;3.80;64.90;;;;;;4973773;28;20122;-77
2022/01/29 08:56:33;;;;;;;22.90;12.00;;;3.90;64.60;;;;;;4972257;28;20039;-73
2022/01/29 08:58:59;;;;;;;19.97;10.87;;;4.00;63.50;;;;;;4971548;28;20029;-74
2022/01/29 09:01:25;;;;;;;19.50;12.33;;;4.10;62.40;;;;;;4974286;28;20563;-75
2022/01/29 09:03:51;;;;;;;20.53;12.40;;;4.10;62.20;;;;;;4974430;28;20019;-74
2022/01/29 09:06:17;;;;;;;21.13;12.40;;;4.20;62.30;;;;;;4974884;28;20390;-73
2022/01/29 09:08:46;;;;;;;19.60;12.93;;;4.20;62.60;;;;;;4975087;28;20035;-74
2022/01/29 09:11:14;;;;;;;18.77;11.63;;;4.20;62.60;;;;;;4974846;28;20045;-73
2022/01/29 09:13:39;;;;;;;22.10;12.13;;;4.20;62.80;;;;;;4975196;28;20081;-74
2022/01/29 09:16:05;;;;;;;19.67;11.77;;;4.30;63.00;;;;;;4975001;28;20023;-74
2022/01/29 09:18:31;;;;;;;20.80;12.83;;;4.40;62.90;;;;;;4974851;28;20085;-73
2022/01/29 09:20:56;;;;;;;21.30;12.17;;;4.50;62.60;;;;;;4974680;28;20023;-74
2022/01/29 09:23:22;;;;;;;20.23;12.13;;;4.60;62.60;;;;;;4974663;28;20110;-74
2022/01/29 09:25:48;;;;;;;17.60;10.97;;;4.70;62.50;;;;;;4974510;28;20098;-74
2022/01/29 09:28:14;;;;;;;21.10;10.00;;;4.70;62.30;;;;;;4974438;28;20492;-74
2022/01/29 09:30:41;;;;;;;13.43;7.40;;;4.80;62.20;;;;;;4974370;28;20039;-74
2022/01/29 09:33:07;;;;;;;13.97;7.13;;;4.90;61.50;;;;;;4974803;28;20430;-76
2022/01/29 09:35:33;;;;;;;133.27;13.00;;;5.00;60.70;;;;;;4974830;28;20105;-74
2022/01/29 09:37:59;;;;;;;22.20;8.07;;;5.00;60.30;;;;;;4974738;28;20031;-75
2022/01/29 09:40:24;;;;;;;14.57;7.23;;;5.10;60.00;;;;;;4974616;28;20494;-76
2022/01/29 09:42:51;;;;;;;14.10;7.97;;;5.10;59.80;;;;;;4957167;28;20031;-73
2022/01/29 09:45:21;;;;;;;15.60;7.53;;;5.20;59.40;;;;;;4974701;28;20053;-74
2022/01/29 09:47:48;;;;;;;12.53;7.97;;;5.30;59.30;;;;;;4974400;28;20019;-73
2022/01/29 09:50:16;;;;;;;13.10;7.17;;;5.40;59.10;;;;;;4974230;28;20046;-76
2022/01/29 09:52:42;;;;;;;12.17;6.77;;;5.40;58.70;;;;;;4974033;28;20027;-73
2022/01/29 09:55:09;;;;;;;10.77;6.67;;;5.50;58.10;;;;;;4974515;28;20033;-74
2022/01/29 09:57:35;;;;;;;61.33;8.07;;;5.50;57.50;;;;;;4973838;28;20364;-73
2022/01/29 10:00:01;;;;;;;29.73;12.17;;;5.60;57.40;;;;;;4971396;28;20062;-75
2022/01/29 10:02:26;;;;;;;13.40;7.13;;;5.70;57.40;;;;;;4954019;28;20027;-76
2022/01/29 10:04:55;;;;;;;14.57;7.00;;;5.80;57.30;;;;;;4973636;28;20053;-74
2022/01/29 10:07:28;;;;;;;9.73;6.03;;;5.90;57.10;;;;;;4974380;28;20023;-74
2022/01/29 10:09:54;;;;;;;11.50;7.00;;;6.00;56.20;;;;;;4956456;28;20450;-74
2022/01/29 10:12:24;;;;;;;14.23;8.23;;;6.10;55.80;;;;;;4977639;28;20045;-73
2022/01/29 10:14:58;;;;;;;10.93;5.87;;;6.20;55.70;;;;;;4977897;28;20030;-75
2022/01/29 10:17:44;;;;;;;11.60;5.83;;;6.30;55.30;;;;;;4978122;28;20082;-74
2022/01/29 10:20:16;;;;;;;8.97;5.33;;;6.40;55.20;;;;;;4978433;28;20027;-74
2022/01/29 10:22:45;;;;;;;17.05;4.72;;;6.50;55.20;;;;;;4977154;28;20023;-76
2022/01/29 10:25:13;;;;;;;7.57;4.67;;;6.60;54.90;;;;;;4975379;28;20506;-72
2022/01/29 10:27:55;;;;;;;10.77;5.30;;;6.80;54.50;;;;;;4975325;28;20398;-73
2022/01/29 10:30:21;;;;;;;8.53;4.73;;;6.90;54.60;;;;;;4976667;28;20399;-72
2022/01/29 10:32:46;;;;;;;10.73;5.63;;;7.00;54.40;;;;;;4977908;28;20110;-76
2022/01/29 10:35:12;;;;;;;10.87;5.73;;;7.10;54.40;;;;;;4977756;28;20023;-73
2022/01/29 10:37:38;;;;;;;13.87;6.13;;;7.20;54.30;;;;;;4977597;28;20030;-73
2022/01/29 10:40:16;;;;;;;12.93;6.20;;;7.20;54.20;;;;;;4977745;28;20030;-72
2022/01/29 10:42:42;;;;;;;12.90;5.60;;;7.30;53.80;;;;;;4977542;28;20027;-72
2022/01/29 10:45:09;;;;;;;10.43;5.67;;;7.30;53.40;;;;;;4977498;28;20027;-72
2022/01/29 10:47:55;;;;;;;9.30;5.43;;;7.30;53.90;;;;;;4977521;28;20030;-71
2022/01/29 10:50:21;;;;;;;11.33;5.83;;;7.30;53.20;;;;;;4977741;28;20042;-72
2022/01/29 10:52:48;;;;;;;13.33;6.17;;;7.30;53.00;;;;;;4977135;28;20081;-72
2022/01/29 10:55:14;;;;;;;12.00;6.23;;;7.20;52.90;;;;;;4960207;28;20105;-71
2022/01/29 10:57:44;;;;;;;10.13;5.67;;;7.20;53.00;;;;;;4977328;28;20055;-71
2022/01/29 11:00:23;;;;;;;11.67;5.57;;;7.20;53.10;;;;;;4977160;28;20033;-74
2022/01/29 11:02:54;;;;;;;11.30;6.13;;;7.20;53.50;;;;;;4977276;28;20019;-76
2022/01/29 11:05:27;;;;;;;10.20;6.17;;;7.10;53.90;;;;;;4977239;28;20034;-72
2022/01/29 11:07:55;;;;;;;16.17;7.10;;;7.10;54.20;;;;;;4977020;28;20113;-74
2022/01/29 11:10:21;;;;;;;20.67;8.00;;;7.10;54.40;;;;;;4976318;28;20047;-72
2022/01/29 11:12:49;;;;;;;18.17;8.17;;;7.10;54.60;;;;;;4976802;28;20026;-72
2022/01/29 11:15:18;;;;;;;18.23;8.00;;;7.10;54.90;;;;;;4976677;28;20066;-72
2022/01/29 11:17:45;;;;;;;15.27;8.37;;;7.10;55.00;;;;;;4976867;28;20023;-72
2022/01/29 11:20:11;;;;;;;18.23;8.73;;;7.10;55.20;;;;;;4959303;28;20388;-72
2022/01/29 11:22:44;;;;;;;14.43;7.60;;;7.20;54.90;;;;;;4976147;28;20030;-72
2022/01/29 11:25:31;;;;;;;14.65;7.07;;;7.30;54.40;;;;;;4975065;28;20035;-72
2022/01/29 11:28:17;;;;;;;14.23;6.80;;;7.50;54.10;;;;;;4976533;28;20487;-72
2022/01/29 11:30:45;;;;;;;14.27;7.40;;;7.60;53.50;;;;;;4976194;28;20094;-73
2022/01/29 11:33:11;;;;;;;12.93;7.87;;;7.80;53.10;;;;;;4976434;28;20514;-72
2022/01/29 11:35:57;;;;;;;13.50;7.83;;;8.00;52.70;;;;;;4976086;28;20027;-73
2022/01/29 11:38:33;;;;;;;12.20;7.33;;;8.10;52.40;;;;;;4975305;28;20047;-71
2022/01/29 11:41:01;;;;;;;13.37;7.13;;;8.20;52.00;;;;;;4975933;28;20234;-72
2022/01/29 11:43:31;;;;;;;16.47;8.00;;;8.40;51.40;;;;;;4976392;28;20034;-71
2022/01/29 11:46:04;;;;;;;15.70;7.33;;;8.50;51.10;;;;;;4975381;28;20053;-71
2022/01/29 11:48:35;;;;;;;13.30;7.30;;;8.60;50.70;;;;;;4975104;28;20035;-71
2022/01/29 11:51:05;;;;;;;12.23;7.03;;;8.70;50.30;;;;;;4975645;28;20043;-75
2022/01/29 11:53:48;;;;;;;16.57;7.37;;;8.80;49.10;;;;;;4975318;28;20046;-72
2022/01/29 11:56:34;;;;;;;15.30;8.77;;;8.90;48.20;;;;;;4975950;28;20027;-71
2022/01/29 11:59:21;;;;;;;15.67;8.53;;;9.00;47.80;;;;;;4975659;28;20117;-71
2022/01/29 12:01:49;;;;;;;15.87;8.17;;;9.10;48.50;;;;;;4973406;28;20034;-71
2022/01/29 12:04:17;;;;;;;28.87;14.67;;;9.20;48.30;;;;;;4973243;28;20038;-71
2022/01/29 12:10:11;;;;;;;25.53;12.43;;;9.40;47.70;;;;;;4953127;28;20392;-71
2022/01/29 12:12:39;;;;;;;26.47;13.03;;;9.50;47.90;;;;;;4975722;28;20027;-71
2022/01/29 12:15:11;;;;;;;24.53;12.37;;;9.60;48.10;;;;;;4976028;28;20383;-71
2022/01/29 12:17:58;;;;;;;23.83;11.60;;;9.70;47.30;;;;;;4975735;28;20077;-71
2022/01/29 12:20:25;;;;;;;21.80;10.57;;;9.80;47.30;;;;;;4975777;28;20027;-72
2022/01/29 12:23:04;;;;;;;26.53;11.50;;;9.90;47.10;;;;;;4975942;28;20034;-71
2022/01/29 12:25:30;;;;;;;25.30;12.03;;;9.90;46.20;;;;;;4975387;28;20078;-77
2022/01/29 12:27:58;;;;;;;23.50;10.53;;;10.00;46.80;;;;;;4971962;28;20035;-72
2022/01/29 12:30:32;;;;;;;28.17;11.53;;;10.00;45.90;;;;;;4971708;28;20074;-84
2022/01/29 12:33:04;;;;;;;26.77;11.27;;;10.10;45.70;;;;;;4975117;28;20054;-82
2022/01/29 12:35:41;;;;;;;22.27;9.43;;;10.20;44.60;;;;;;4974561;28;20118;-85
2022/01/29 12:38:15;;;;;;;20.87;10.00;;;10.20;44.80;;;;;;4975742;28;20038;-84
2022/01/29 12:40:56;;;;;;;21.07;9.37;;;10.20;45.30;;;;;;4976274;28;20069;-85
2022/01/29 12:43:26;;;;;;;20.27;8.83;;;10.30;45.40;;;;;;4976236;28;20082;-86
2022/01/29 12:45:54;;;;;;;18.60;9.40;;;10.30;45.10;;;;;;4975785;28;20484;-86
2022/01/29 12:48:21;;;;;;;17.17;9.00;;;10.30;45.30;;;;;;4975974;28;20069;-88
2022/01/29 12:50:47;;;;;;;20.05;9.52;;;10.40;45.50;;;;;;4975565;28;20034;-86
2022/01/29 12:53:16;;;;;;;21.53;9.70;;;10.40;45.40;;;;;;4976394;28;20027;-85
2022/01/29 12:55:42;;;;;;;19.75;9.35;;;10.40;44.80;;;;;;4976252;28;20031;-86
2022/01/29 12:58:08;;;;;;;18.95;10.18;;;10.50;45.20;;;;;;4975521;28;20254;-85
2022/01/29 13:00:36;;;;;;;20.93;9.73;;;10.50;45.60;;;;;;4975793;28;20026;-88